Time;durP1;ratioP1;P1;durP2;ratioP2;P2;SDS_P1;SDS_P2;PMS_P1;PMS_P2;Temp;Humidity;BMP_temperature;BMP_pressure;BME280_temperature;BME280_humidity;BME280_pressure;Samples;Min_cycle;Max_cycle;Signal;HPM_P1;HPM_P2
2022/11/03 00:01:45;;;;;;;86.05;55.75;;;17.50;99.90;;;;;;4918653;29;20058;-71
2022/11/03 00:04:49;;;;;;;86.60;52.95;;;17.50;99.90;;;;;;4918428;29;20051;-71
2022/11/03 00:07:53;;;;;;;95.43;57.63;;;17.40;99.90;;;;;;4918357;29;20039;-71
2022/11/03 00:11:06;;;;;;;92.28;57.25;;;17.30;99.90;;;;;;4918342;29;20051;-71
2022/11/03 00:14:11;;;;;;;89.32;57.70;;;17.20;99.90;;;;;;4917618;29;20055;-71
2022/11/03 00:17:15;;;;;;;85.32;57.58;;;17.10;99.90;;;;;;4918309;29;20385;-71
2022/11/03 00:20:19;;;;;;;86.57;56.95;;;17.10;99.90;;;;;;4917843;29;20495;-71
2022/11/03 00:23:29;;;;;;;89.28;58.35;;;17.20;99.90;;;;;;4917886;29;20499;-71
2022/11/03 00:26:34;;;;;;;83.90;56.70;;;17.30;99.90;;;;;;4916818;29;20067;-72
2022/11/03 00:29:39;;;;;;;80.47;54.75;;;17.30;99.90;;;;;;4917079;29;20047;-72
2022/11/03 00:32:42;;;;;;;80.03;53.20;;;17.40;99.90;;;;;;4917851;29;20507;-72
2022/11/03 00:35:46;;;;;;;79.82;52.60;;;17.50;99.90;;;;;;4916647;29;20075;-72
2022/11/03 00:38:50;;;;;;;81.07;53.42;;;17.50;99.90;;;;;;4916845;29;20055;-72
2022/11/03 00:41:54;;;;;;;83.78;51.47;;;17.50;99.90;;;;;;4917216;29;20040;-73
2022/11/03 00:44:58;;;;;;;73.00;49.42;;;17.40;99.90;;;;;;4917261;29;20059;-72
2022/11/03 00:51:28;;;;;;;73.93;48.33;;;17.20;99.90;;;;;;4916342;29;20055;-73
2022/11/03 00:54:33;;;;;;;73.90;49.90;;;17.30;99.90;;;;;;4917161;29;20051;-72
2022/11/03 00:57:37;;;;;;;68.07;49.13;;;17.40;99.90;;;;;;4917269;29;20055;-72
2022/11/03 01:00:41;;;;;;;71.72;49.78;;;17.40;99.90;;;;;;4916853;29;20044;-72
2022/11/03 01:07:09;;;;;;;71.40;48.33;;;17.50;99.90;;;;;;4917043;29;20507;-72
2022/11/03 01:10:13;;;;;;;74.22;49.33;;;17.50;99.90;;;;;;4917144;29;20047;-72
2022/11/03 01:13:17;;;;;;;69.70;46.03;;;17.50;99.90;;;;;;4916483;29;20056;-72
2022/11/03 01:16:21;;;;;;;71.65;48.20;;;17.50;99.90;;;;;;4915646;29;20063;-72
2022/11/03 01:19:25;;;;;;;69.18;46.50;;;17.50;99.90;;;;;;4916596;29;20066;-72
2022/11/03 01:22:29;;;;;;;74.03;50.25;;;17.50;99.90;;;;;;4916492;29;20059;-72
2022/11/03 01:25:35;;;;;;;74.15;52.67;;;17.40;99.90;;;;;;4916243;29;20047;-72
2022/11/03 01:28:42;;;;;;;83.63;53.60;;;17.30;99.90;;;;;;4916094;29;20043;-72
2022/11/03 01:31:46;;;;;;;78.25;51.20;;;17.20;99.90;;;;;;4916335;29;20428;-72
2022/11/03 01:34:50;;;;;;;78.60;51.28;;;17.20;99.90;;;;;;4916198;29;20113;-72
2022/11/03 01:37:55;;;;;;;67.35;48.25;;;17.20;99.90;;;;;;4915965;29;20055;-72
2022/11/03 01:41:01;;;;;;;75.10;48.72;;;17.20;99.90;;;;;;4915949;29;20047;-72
2022/11/03 01:44:08;;;;;;;78.63;50.67;;;17.10;99.90;;;;;;4916030;29;20051;-72
2022/11/03 01:47:23;;;;;;;69.65;47.17;;;17.00;99.90;;;;;;4915956;29;20043;-72
2022/11/03 01:50:27;;;;;;;76.60;49.67;;;16.90;99.90;;;;;;4915772;29;20059;-72
2022/11/03 01:53:31;;;;;;;68.63;47.97;;;16.90;99.90;;;;;;4915816;29;20039;-72
2022/11/03 01:56:39;;;;;;;76.93;46.97;;;17.00;99.90;;;;;;4915726;29;20542;-72
2022/11/03 01:59:45;;;;;;;69.90;46.28;;;17.10;99.90;;;;;;4915705;29;20051;-72
2022/11/03 02:02:53;;;;;;;66.47;44.42;;;17.20;99.90;;;;;;4915137;29;20072;-72
2022/11/03 02:05:58;;;;;;;69.28;44.35;;;17.20;99.90;;;;;;4915779;29;20048;-72
2022/11/03 02:09:06;;;;;;;64.15;42.92;;;17.20;99.90;;;;;;4915132;29;20051;-73
2022/11/03 02:12:12;;;;;;;61.78;43.33;;;17.20;99.90;;;;;;4915557;29;20047;-72
2022/11/03 02:15:19;;;;;;;63.92;43.47;;;17.20;99.90;;;;;;4915348;29;20051;-72
2022/11/03 02:18:31;;;;;;;64.40;44.60;;;17.20;99.90;;;;;;4915386;29;20060;-72
2022/11/03 02:21:58;;;;;;;69.10;46.10;;;17.20;99.90;;;;;;4915448;29;20055;-72
2022/11/03 02:25:30;;;;;;;73.45;45.42;;;17.00;99.90;;;;;;4915297;29;20051;-72
2022/11/03 02:28:34;;;;;;;66.13;44.85;;;16.90;99.90;;;;;;4915576;29;20113;-72
2022/11/03 02:31:45;;;;;;;66.38;45.10;;;16.80;99.90;;;;;;4915247;29;20063;-71
2022/11/03 02:35:08;;;;;;;73.40;44.67;;;16.90;99.90;;;;;;4915425;29;20060;-72
2022/11/03 02:38:15;;;;;;;67.45;46.35;;;16.90;99.90;;;;;;4915155;29;20412;-72
2022/11/03 02:41:20;;;;;;;67.75;45.22;;;16.80;99.90;;;;;;4914997;29;20043;-72
2022/11/03 02:44:26;;;;;;;71.32;46.53;;;16.60;99.90;;;;;;4914517;29;20047;-72
2022/11/03 02:47:32;;;;;;;72.60;46.47;;;16.50;99.90;;;;;;4915283;29;20039;-72
2022/11/03 02:50:36;;;;;;;68.05;45.95;;;16.40;99.90;;;;;;4914483;29;20071;-72
2022/11/03 02:54:20;;;;;;;68.88;45.40;;;16.40;99.90;;;;;;4914964;29;20099;-72
2022/11/03 02:57:28;;;;;;;68.38;46.22;;;16.40;99.90;;;;;;4914969;29;20051;-71
2022/11/03 03:00:53;;;;;;;67.00;45.22;;;16.40;99.90;;;;;;4914989;29;20063;-72
2022/11/03 03:04:01;;;;;;;68.20;44.72;;;16.40;99.90;;;;;;4914980;29;20055;-71
2022/11/03 03:07:30;;;;;;;69.63;45.90;;;16.50;99.90;;;;;;4914809;29;20047;-71
2022/11/03 03:10:44;;;;;;;62.65;43.95;;;16.50;99.90;;;;;;4915039;29;20051;-71
2022/11/03 03:13:49;;;;;;;65.40;44.60;;;16.50;99.90;;;;;;4914951;29;20055;-71
2022/11/03 03:16:59;;;;;;;63.15;43.30;;;16.60;99.90;;;;;;4914726;29;20059;-70
2022/11/03 03:20:42;;;;;;;60.33;42.45;;;16.70;99.90;;;;;;4914988;29;20063;-72
2022/11/03 03:24:07;;;;;;;62.55;41.50;;;16.80;99.90;;;;;;4914108;29;20051;-71
2022/11/03 03:27:12;;;;;;;64.63;42.28;;;16.90;99.90;;;;;;4914734;29;20067;-70
2022/11/03 03:30:17;;;;;;;55.67;39.28;;;16.90;99.90;;;;;;4914635;29;20051;-71
2022/11/03 03:33:22;;;;;;;61.53;41.47;;;16.90;99.90;;;;;;4914713;29;20067;-71
2022/11/03 03:36:28;;;;;;;61.22;40.33;;;16.90;99.90;;;;;;4914549;29;20056;-71
2022/11/03 03:39:36;;;;;;;60.08;41.05;;;17.00;99.90;;;;;;4914556;29;20047;-71
2022/11/03 03:42:42;;;;;;;64.07;43.20;;;16.90;99.90;;;;;;4914593;29;20067;-71
2022/11/03 03:45:49;;;;;;;63.15;42.58;;;16.90;99.90;;;;;;4914388;29;20492;-71
2022/11/03 03:48:53;;;;;;;63.22;42.30;;;16.90;99.90;;;;;;4914435;29;20519;-71
2022/11/03 03:51:58;;;;;;;63.95;42.22;;;16.90;99.90;;;;;;4914698;29;20071;-71
2022/11/03 03:55:03;;;;;;;66.45;43.65;;;16.90;99.90;;;;;;4902984;29;20048;-71
2022/11/03 03:58:11;;;;;;;62.67;42.03;;;16.80;99.90;;;;;;4914827;29;20393;-72
2022/11/03 04:01:15;;;;;;;60.22;41.63;;;16.80;99.90;;;;;;4917034;29;20043;-72
2022/11/03 04:04:19;;;;;;;63.45;42.35;;;16.80;99.90;;;;;;4917916;29;20055;-72
2022/11/03 04:24:16;;;;;;;61.60;41.65;;;16.50;99.90;;;;;;4917884;29;20570;-71
2022/11/03 04:27:35;;;;;;;61.78;40.25;;;16.40;99.90;;;;;;4917654;29;20048;-72
2022/11/03 04:30:40;;;;;;;63.58;41.25;;;16.40;99.90;;;;;;4917519;29;20043;-70
2022/11/03 04:33:44;;;;;;;56.75;40.35;;;16.40;99.90;;;;;;4917398;29;20047;-72
2022/11/03 04:36:48;;;;;;;60.05;38.45;;;16.40;99.90;;;;;;4917340;29;20070;-71
2022/11/03 04:39:57;;;;;;;58.80;38.95;;;16.50;99.90;;;;;;4917305;29;20059;-72
2022/11/03 04:43:09;;;;;;;58.08;39.78;;;16.60;99.90;;;;;;4916174;29;20055;-72
2022/11/03 04:46:16;;;;;;;59.45;40.90;;;16.60;99.90;;;;;;4917731;29;20062;-71
2022/11/03 04:49:22;;;;;;;67.13;39.88;;;16.60;99.90;;;;;;4915903;29;20059;-70
2022/11/03 04:52:26;;;;;;;61.35;40.67;;;16.60;99.90;;;;;;4917038;29;20482;-71
2022/11/03 04:55:30;;;;;;;61.67;41.03;;;16.40;99.90;;;;;;4915788;29;20121;-71
2022/11/03 04:58:35;;;;;;;58.97;42.33;;;16.40;99.90;;;;;;4916846;29;20039;-70
2022/11/03 05:01:41;;;;;;;68.10;43.67;;;16.20;99.90;;;;;;4916904;29;20059;-72
2022/11/03 05:04:45;;;;;;;67.85;42.05;;;16.10;99.90;;;;;;4917194;29;20409;-71
2022/11/03 05:07:52;;;;;;;75.53;45.97;;;16.10;99.90;;;;;;4916939;29;20039;-71
2022/11/03 05:10:59;;;;;;;65.93;41.95;;;16.10;99.90;;;;;;4916572;29;20043;-71
2022/11/03 05:14:14;;;;;;;66.03;42.20;;;16.10;99.90;;;;;;4916569;29;20039;-71
2022/11/03 05:17:27;;;;;;;65.85;42.25;;;16.10;99.90;;;;;;4916609;29;20059;-72
2022/11/03 05:20:36;;;;;;;61.75;41.15;;;16.10;99.90;;;;;;4916346;29;20043;-71
2022/11/03 05:24:01;;;;;;;65.07;41.08;;;16.20;99.90;;;;;;4916670;29;20087;-71
2022/11/03 05:27:19;;;;;;;67.82;42.75;;;16.20;99.90;;;;;;4916568;29;20071;-72
2022/11/03 05:30:23;;;;;;;63.50;41.65;;;16.20;99.90;;;;;;4916379;29;20064;-70
2022/11/03 05:33:34;;;;;;;76.20;43.90;;;16.10;99.90;;;;;;4916329;29;20067;-72
2022/11/03 05:36:38;;;;;;;65.27;42.87;;;16.10;99.90;;;;;;4916105;29;20059;-72
2022/11/03 05:39:45;;;;;;;65.45;43.35;;;16.10;99.90;;;;;;4916309;29;20051;-72
2022/11/03 05:43:00;;;;;;;68.07;44.15;;;16.00;99.90;;;;;;4916340;29;20396;-71
2022/11/03 05:46:04;;;;;;;62.58;41.33;;;16.00;99.90;;;;;;4916319;29;20043;-71
2022/11/03 05:49:09;;;;;;;67.35;43.05;;;15.90;99.90;;;;;;4914944;29;20059;-71
2022/11/03 05:52:24;;;;;;;68.55;42.53;;;16.00;99.90;;;;;;4916071;29;20063;-72
2022/11/03 05:55:32;;;;;;;57.58;41.15;;;16.10;99.90;;;;;;4914926;29;20067;-71
2022/11/03 05:58:38;;;;;;;61.65;41.03;;;16.10;99.90;;;;;;4916099;29;20059;-71
2022/11/03 06:01:42;;;;;;;67.15;40.47;;;16.20;99.90;;;;;;4915885;29;20047;-72
2022/11/03 06:04:48;;;;;;;61.47;37.70;;;16.30;99.90;;;;;;4914922;29;20047;-72
2022/11/03 06:07:54;;;;;;;55.30;36.35;;;16.30;99.90;;;;;;4915806;29;20127;-71
2022/11/03 06:11:00;;;;;;;52.35;37.45;;;16.30;99.90;;;;;;4915718;29;20496;-72
2022/11/03 06:14:11;;;;;;;57.55;37.17;;;16.40;99.90;;;;;;4915513;29;20047;-72
2022/11/03 06:17:25;;;;;;;53.08;35.15;;;16.30;99.90;;;;;;4915220;29;20436;-70
2022/11/03 06:20:29;;;;;;;55.70;36.53;;;16.40;99.90;;;;;;4915394;29;20397;-72
2022/11/03 06:23:36;;;;;;;56.20;36.60;;;16.40;99.90;;;;;;4914675;29;20047;-71
2022/11/03 06:26:41;;;;;;;50.58;34.72;;;16.50;99.90;;;;;;4915345;29;20047;-72
2022/11/03 06:29:54;;;;;;;52.67;33.50;;;16.50;99.90;;;;;;4915308;29;20540;-72
2022/11/03 06:33:12;;;;;;;49.35;31.42;;;16.60;99.90;;;;;;4915091;29;20388;-72
2022/11/03 06:36:23;;;;;;;50.15;32.42;;;16.60;99.90;;;;;;4915080;29;20629;-70
2022/11/03 06:39:27;;;;;;;50.13;33.22;;;16.60;99.90;;;;;;4915419;29;20086;-71
2022/11/03 06:42:34;;;;;;;49.15;32.85;;;16.50;99.90;;;;;;4915100;29;20051;-71
2022/11/03 06:45:43;;;;;;;47.25;32.20;;;16.50;99.90;;;;;;4915142;29;20428;-71
2022/11/03 06:48:47;;;;;;;52.90;33.88;;;16.60;99.90;;;;;;4914746;29;20508;-72
2022/11/03 06:51:51;;;;;;;57.33;35.55;;;16.80;99.90;;;;;;4914950;29;20071;-72
2022/11/03 06:54:55;;;;;;;53.47;34.10;;;16.90;99.90;;;;;;4914767;29;20055;-71
2022/11/03 06:58:25;;;;;;;55.85;33.30;;;17.10;99.90;;;;;;4914816;29;20047;-71
2022/11/03 07:01:32;;;;;;;53.50;34.53;;;17.20;99.90;;;;;;4914742;29;20051;-72
2022/11/03 07:04:36;;;;;;;49.63;35.20;;;17.30;99.90;;;;;;4914322;29;20055;-72
2022/11/03 07:07:40;;;;;;;61.58;37.38;;;17.10;99.90;;;;;;4914797;29;20488;-72
2022/11/03 07:10:44;;;;;;;60.20;36.30;;;17.30;99.90;;;;;;4914791;29;20043;-71
2022/11/03 07:13:52;;;;;;;52.10;34.25;;;17.50;99.90;;;;;;4915014;29;20067;-71
2022/11/03 07:17:12;;;;;;;59.55;39.17;;;17.60;99.90;;;;;;4913625;29;20071;-70
2022/11/03 07:20:17;;;;;;;52.65;36.25;;;17.70;99.90;;;;;;4914335;29;20054;-66
2022/11/03 07:23:25;;;;;;;54.25;37.53;;;17.90;99.90;;;;;;4914414;29;20474;-67
2022/11/03 07:26:31;;;;;;;51.92;34.35;;;18.20;99.90;;;;;;4914655;29;20056;-66
2022/11/03 07:29:35;;;;;;;47.67;31.60;;;18.30;99.90;;;;;;4914326;29;20047;-67
2022/11/03 07:32:39;;;;;;;45.47;31.52;;;18.50;99.90;;;;;;4914083;29;20043;-66
2022/11/03 07:35:44;;;;;;;43.20;29.58;;;18.70;99.90;;;;;;4915854;29;20062;-66
2022/11/03 07:38:51;;;;;;;45.05;30.05;;;18.90;99.90;;;;;;4917729;29;20051;-67
2022/11/03 07:41:55;;;;;;;49.72;31.83;;;19.10;99.90;;;;;;4918139;29;20063;-66
2022/11/03 07:45:43;;;;;;;45.05;29.15;;;19.20;99.90;;;;;;4917560;29;20204;-65
2022/11/03 07:48:55;;;;;;;47.83;31.27;;;19.30;99.90;;;;;;4918001;29;20078;-66
2022/11/03 07:51:59;;;;;;;45.42;28.45;;;19.60;99.90;;;;;;4918499;29;20047;-67
2022/11/03 07:55:10;;;;;;;47.05;29.75;;;19.70;99.90;;;;;;4918230;29;20051;-65
2022/11/03 07:58:21;;;;;;;52.35;32.92;;;19.90;99.80;;;;;;4917653;29;20055;-67
2022/11/03 08:01:36;;;;;;;43.88;28.25;;;20.10;99.30;;;;;;4917992;29;20043;-66
2022/11/03 08:04:40;;;;;;;45.50;32.70;;;20.20;99.10;;;;;;4917937;29;20051;-67
2022/11/03 08:07:44;;;;;;;40.65;28.30;;;20.30;98.80;;;;;;4917800;29;20047;-66
2022/11/03 08:10:48;;;;;;;39.28;25.33;;;20.40;98.50;;;;;;4917589;29;20117;-67
2022/11/03 08:13:52;;;;;;;43.95;30.42;;;20.50;98.60;;;;;;4917147;29;20051;-70
2022/11/03 08:16:56;;;;;;;38.80;28.08;;;20.60;98.00;;;;;;4917496;29;20058;-67
2022/11/03 08:20:00;;;;;;;37.50;25.20;;;20.60;98.20;;;;;;4916637;29;20047;-67
2022/11/03 08:23:04;;;;;;;36.65;25.95;;;20.80;98.30;;;;;;4917412;29;20055;-67
2022/11/03 08:26:08;;;;;;;37.30;28.45;;;21.00;98.10;;;;;;4917442;29;20055;-67
2022/11/03 08:29:13;;;;;;;35.70;25.63;;;21.10;98.10;;;;;;4917386;29;20047;-67
2022/11/03 08:32:17;;;;;;;34.30;26.02;;;21.20;98.10;;;;;;4917508;29;20071;-67
2022/11/03 08:35:22;;;;;;;37.08;26.27;;;21.30;97.90;;;;;;4916400;29;20043;-68
2022/11/03 08:38:26;;;;;;;36.60;25.67;;;21.40;97.80;;;;;;4917337;29;20405;-68
2022/11/03 08:41:30;;;;;;;37.72;25.42;;;21.50;97.70;;;;;;4916379;29;20036;-68
2022/11/03 08:44:34;;;;;;;36.88;26.08;;;21.60;97.50;;;;;;4916951;29;20071;-68
2022/11/03 08:47:38;;;;;;;36.45;27.95;;;21.70;97.30;;;;;;4916087;29;20468;-68
2022/11/03 08:50:42;;;;;;;42.63;30.48;;;21.80;97.20;;;;;;4916951;29;20051;-67
2022/11/03 08:53:49;;;;;;;39.38;27.25;;;21.90;97.20;;;;;;4916836;29;20039;-67
2022/11/03 08:56:53;;;;;;;47.28;32.00;;;22.00;97.00;;;;;;4916737;29;20052;-67
2022/11/03 08:59:57;;;;;;;32.33;24.02;;;22.10;96.60;;;;;;4915610;29;20060;-67
2022/11/03 09:03:01;;;;;;;32.70;21.27;;;22.10;96.30;;;;;;4916362;29;20047;-67
2022/11/03 09:06:06;;;;;;;25.55;20.25;;;22.20;95.80;;;;;;4916504;29;20048;-68
2022/11/03 09:09:10;;;;;;;31.63;19.38;;;22.20;95.90;;;;;;4916347;29;20404;-67
2022/11/03 09:12:14;;;;;;;21.40;15.60;;;22.20;95.60;;;;;;4916645;29;20046;-67
2022/11/03 09:15:17;;;;;;;28.60;19.08;;;22.30;95.80;;;;;;4915640;29;20047;-68
2022/11/03 09:18:22;;;;;;;29.10;18.95;;;22.40;95.60;;;;;;4916469;29;20059;-68
2022/11/03 09:21:25;;;;;;;22.33;16.30;;;22.50;95.50;;;;;;4916169;29;20047;-67
2022/11/03 09:24:29;;;;;;;22.13;13.88;;;22.70;95.30;;;;;;4916108;29;20535;-68
2022/11/03 09:27:34;;;;;;;19.02;13.90;;;22.60;95.00;;;;;;4916141;29;20047;-67
2022/11/03 09:30:38;;;;;;;20.25;14.07;;;22.60;95.10;;;;;;4916424;29;20047;-68
2022/11/03 09:33:42;;;;;;;21.13;12.55;;;22.70;95.10;;;;;;4916062;29;20067;-67
2022/11/03 09:36:45;;;;;;;22.48;12.15;;;22.60;95.10;;;;;;4915892;29;20067;-69
2022/11/03 09:39:49;;;;;;;27.90;14.77;;;22.50;94.90;;;;;;4915981;29;20059;-69
2022/11/03 09:42:55;;;;;;;29.50;14.77;;;22.60;95.10;;;;;;4916087;29;20055;-68
2022/11/03 09:45:59;;;;;;;19.65;10.23;;;22.70;94.80;;;;;;4916094;29;20051;-69
2022/11/03 09:49:04;;;;;;;18.90;11.20;;;22.90;94.30;;;;;;4915447;29;20059;-67
2022/11/03 09:52:14;;;;;;;22.30;11.48;;;23.00;93.70;;;;;;4916070;29;20401;-68
2022/11/03 09:55:22;;;;;;;30.20;13.10;;;23.10;93.70;;;;;;4915553;29;20051;-66
2022/11/03 09:58:27;;;;;;;31.63;15.90;;;23.40;93.70;;;;;;4915287;29;20381;-68
2022/11/03 10:01:31;;;;;;;20.50;12.95;;;23.50;93.10;;;;;;4915470;29;20043;-68
2022/11/03 10:04:35;;;;;;;22.63;13.18;;;23.40;93.00;;;;;;4915517;29;20047;-65
2022/11/03 10:07:41;;;;;;;22.55;13.13;;;23.20;93.30;;;;;;4915457;29;20404;-65
2022/11/03 10:10:45;;;;;;;19.80;12.70;;;22.90;93.70;;;;;;4915295;29;20055;-66
2022/11/03 10:13:53;;;;;;;18.88;12.55;;;22.70;94.00;;;;;;4914660;29;20046;-67
2022/11/03 10:16:59;;;;;;;31.42;17.38;;;22.60;94.30;;;;;;4915229;29;20055;-66
2022/11/03 10:20:10;;;;;;;21.55;14.85;;;22.40;94.50;;;;;;4915063;29;20150;-67
2022/11/03 10:23:14;;;;;;;16.80;12.80;;;22.40;94.80;;;;;;4915606;29;20051;-66
2022/11/03 10:26:19;;;;;;;18.38;12.35;;;22.40;94.90;;;;;;4911748;29;20047;-66
2022/11/03 10:29:28;;;;;;;20.25;14.48;;;22.40;94.80;;;;;;4911572;29;20055;-68
2022/11/03 10:32:33;;;;;;;20.00;12.48;;;22.50;94.90;;;;;;4910917;29;20039;-67
2022/11/03 10:35:39;;;;;;;14.90;10.98;;;22.60;94.60;;;;;;4911236;29;20244;-67
2022/11/03 10:38:44;;;;;;;16.05;9.52;;;22.70;94.50;;;;;;4911789;29;20496;-68
2022/11/03 10:41:57;;;;;;;12.90;9.40;;;22.80;94.50;;;;;;4911507;29;20055;-68
2022/11/03 10:45:18;;;;;;;12.25;6.97;;;23.00;93.90;;;;;;4910276;29;20055;-66
2022/11/03 10:48:25;;;;;;;;;;;23.00;93.10;;;;;;4911146;29;20055;-67
2022/11/03 10:51:29;;;;;;;9.38;6.13;;;22.90;92.70;;;;;;4911204;29;19911;-67
2022/11/03 10:54:35;;;;;;;12.18;5.50;;;22.80;92.40;;;;;;4912358;29;20100;-67
2022/11/03 10:57:39;;;;;;;8.55;5.88;;;22.70;92.50;;;;;;4911062;29;20051;-67
2022/11/03 11:00:42;;;;;;;11.18;6.13;;;22.70;92.70;;;;;;4910938;29;20353;-67
2022/11/03 11:03:46;;;;;;;17.10;6.57;;;22.70;92.80;;;;;;4911250;29;20051;-67
2022/11/03 11:06:51;;;;;;;8.93;5.20;;;22.70;92.90;;;;;;4910227;29;20051;-67
2022/11/03 11:09:55;;;;;;;8.40;5.13;;;22.60;93.00;;;;;;4911293;29;20412;-68
2022/11/03 11:13:16;;;;;;;17.85;5.47;;;22.60;93.00;;;;;;4915054;29;20131;-68
2022/11/03 11:16:39;;;;;;;;;;;22.60;92.90;;;;;;4914477;29;20119;-68
2022/11/03 11:20:17;;;;;;;12.85;6.15;;;22.60;92.70;;;;;;4915010;29;19915;-68
2022/11/03 11:23:27;;;;;;;10.48;5.25;;;22.60;92.40;;;;;;4914869;29;20158;-68
2022/11/03 11:26:32;;;;;;;10.35;6.28;;;22.60;92.50;;;;;;4913697;29;20059;-66
2022/11/03 11:29:37;;;;;;;11.55;6.75;;;22.60;92.50;;;;;;4918260;29;20067;-66
2022/11/03 11:32:40;;;;;;;9.48;6.90;;;22.70;92.70;;;;;;4915241;29;20377;-65
2022/11/03 11:35:47;;;;;;;18.40;8.48;;;22.90;92.90;;;;;;4914070;29;20400;-68
2022/11/03 11:38:54;;;;;;;17.33;8.07;;;22.90;92.70;;;;;;4914350;29;20388;-67
2022/11/03 11:42:14;;;;;;;14.25;7.32;;;22.90;92.50;;;;;;4915802;29;20043;-65
2022/11/03 11:45:57;;;;;;;10.97;7.53;;;22.80;92.40;;;;;;4915767;29;20485;-65
2022/11/03 11:49:04;;;;;;;14.40;6.70;;;22.70;92.50;;;;;;4914814;29;20047;-68
2022/11/03 11:52:08;;;;;;;13.68;6.90;;;22.70;92.60;;;;;;4914453;29;20047;-66
2022/11/03 11:55:19;;;;;;;9.43;6.13;;;22.80;92.80;;;;;;4913767;29;20075;-67
2022/11/03 11:58:41;;;;;;;8.95;6.05;;;22.90;93.00;;;;;;4914199;29;20571;-68
2022/11/03 12:01:49;;;;;;;10.13;6.05;;;22.90;92.90;;;;;;4915567;29;20074;-70
2022/11/03 12:05:02;;;;;;;13.18;5.70;;;22.90;92.60;;;;;;4915404;29;20055;-66
2022/11/03 12:08:23;;;;;;;10.70;6.25;;;22.90;92.60;;;;;;4915096;29;20500;-65
2022/11/03 12:11:50;;;;;;;8.30;5.87;;;22.90;92.60;;;;;;4914552;29;20051;-66
2022/11/03 12:14:54;;;;;;;11.48;6.20;;;22.90;92.60;;;;;;4914923;29;20470;-65
2022/11/03 12:17:58;;;;;;;7.65;5.15;;;23.00;92.50;;;;;;4914915;29;20127;-67
2022/11/03 12:21:06;;;;;;;11.35;5.68;;;23.00;92.10;;;;;;4913781;29;20515;-66
2022/11/03 12:24:31;;;;;;;9.48;5.55;;;23.10;92.20;;;;;;4915187;29;20055;-66
2022/11/03 12:27:35;;;;;;;11.25;5.97;;;23.10;92.40;;;;;;4914466;29;20119;-67
2022/11/03 12:30:39;;;;;;;9.57;5.78;;;23.10;92.50;;;;;;4914509;29;20055;-66
2022/11/03 12:33:44;;;;;;;16.10;6.93;;;23.10;92.50;;;;;;4913613;29;20051;-67
2022/11/03 12:36:47;;;;;;;17.83;5.90;;;23.10;92.40;;;;;;4913349;29;20047;-66
2022/11/03 12:39:51;;;;;;;9.50;4.95;;;23.00;92.30;;;;;;4914976;29;20063;-67
2022/11/03 12:42:55;;;;;;;9.73;5.50;;;23.00;92.40;;;;;;4914975;29;20043;-67
2022/11/03 12:45:59;;;;;;;18.55;5.80;;;22.90;92.40;;;;;;4913678;29;20059;-66
2022/11/03 12:49:03;;;;;;;11.77;5.30;;;22.90;92.70;;;;;;4914149;29;20515;-67
2022/11/03 12:52:08;;;;;;;15.52;5.20;;;22.90;92.80;;;;;;4914965;29;20487;-67
2022/11/03 12:55:12;;;;;;;10.10;5.53;;;22.80;92.60;;;;;;4914522;29;20238;-68
2022/11/03 12:58:16;;;;;;;16.67;6.75;;;22.80;92.60;;;;;;4914167;29;20059;-66
2022/11/03 13:01:21;;;;;;;10.35;5.43;;;22.80;92.80;;;;;;4914839;29;20043;-66
2022/11/03 13:04:25;;;;;;;6.47;4.30;;;22.70;92.80;;;;;;4914094;29;20058;-67
2022/11/03 13:07:29;;;;;;;13.98;5.43;;;22.80;92.80;;;;;;4914193;29;20062;-67
2022/11/03 13:10:33;;;;;;;8.60;5.07;;;22.70;92.60;;;;;;4914099;29;20204;-66
2022/11/03 13:13:37;;;;;;;13.98;5.45;;;22.70;92.40;;;;;;4913770;29;20047;-66
2022/11/03 13:16:41;;;;;;;18.73;5.65;;;22.70;92.40;;;;;;4914390;29;20507;-66
2022/11/03 13:19:45;;;;;;;10.55;4.78;;;22.70;92.40;;;;;;4913238;29;20054;-67
2022/11/03 13:22:49;;;;;;;10.30;4.53;;;22.60;92.50;;;;;;4914068;29;20066;-66
2022/11/03 13:25:53;;;;;;;9.93;4.70;;;22.60;92.60;;;;;;4912378;29;20385;-67
2022/11/03 13:28:57;;;;;;;7.53;4.40;;;22.60;92.90;;;;;;4912749;29;20123;-66
2022/11/03 13:32:02;;;;;;;12.25;5.35;;;22.50;93.10;;;;;;4913401;29;20226;-67
2022/11/03 13:35:06;;;;;;;9.57;5.28;;;22.50;93.00;;;;;;4913083;29;20067;-66
2022/11/03 13:38:11;;;;;;;12.15;5.05;;;22.50;93.10;;;;;;4911617;29;20059;-67
2022/11/03 13:41:14;;;;;;;9.95;4.97;;;22.40;93.20;;;;;;4912451;29;20047;-66
2022/11/03 13:44:18;;;;;;;11.27;5.15;;;22.40;93.40;;;;;;4913192;29;20051;-67
2022/11/03 13:47:23;;;;;;;13.88;5.65;;;22.40;93.60;;;;;;4912920;29;20480;-67
2022/11/03 13:50:27;;;;;;;20.70;12.05;;;22.40;93.60;;;;;;4912531;29;20369;-66
2022/11/03 13:53:31;;;;;;;10.35;6.60;;;22.40;94.00;;;;;;4912624;29;20119;-67
2022/11/03 13:56:35;;;;;;;12.85;5.63;;;22.40;93.80;;;;;;4913177;29;20055;-66
2022/11/03 13:59:39;;;;;;;10.25;5.10;;;22.30;93.90;;;;;;4912943;29;20055;-67
2022/11/03 14:02:43;;;;;;;9.05;4.20;;;22.30;93.80;;;;;;4912612;29;20170;-66
2022/11/03 14:05:47;;;;;;;14.05;5.53;;;22.30;93.70;;;;;;4900880;29;20054;-66
2022/11/03 14:08:51;;;;;;;19.17;4.70;;;22.20;93.70;;;;;;4912152;29;20047;-66
2022/11/03 14:15:18;;;;;;;6.82;4.25;;;22.10;93.80;;;;;;4913949;29;20071;-67
2022/11/03 14:18:22;;;;;;;13.35;6.60;;;22.10;93.90;;;;;;4912212;29;20385;-65
2022/11/03 14:21:26;;;;;;;10.38;5.15;;;22.10;93.80;;;;;;4911830;29;20055;-67
2022/11/03 14:24:30;;;;;;;14.73;5.50;;;22.10;93.90;;;;;;4912307;29;20063;-65
2022/11/03 14:27:34;;;;;;;10.38;5.00;;;22.00;94.20;;;;;;4912663;29;20039;-64
2022/11/03 14:30:38;;;;;;;7.22;4.55;;;22.00;94.40;;;;;;4911727;29;20047;-65
2022/11/03 14:33:43;;;;;;;13.05;5.00;;;22.00;94.50;;;;;;4911658;29;20062;-65
2022/11/03 14:36:47;;;;;;;10.30;5.05;;;21.90;94.50;;;;;;4911749;29;20059;-65
2022/11/03 14:39:51;;;;;;;11.50;4.93;;;21.90;94.50;;;;;;4910927;29;20055;-67
2022/11/03 14:42:55;;;;;;;10.15;5.43;;;21.90;94.70;;;;;;4911220;29;20066;-68
2022/11/03 14:45:59;;;;;;;10.60;5.28;;;21.90;94.80;;;;;;4911781;29;20067;-66
2022/11/03 14:49:03;;;;;;;13.32;5.10;;;21.90;94.90;;;;;;4900372;29;20063;-68
2022/11/03 14:52:08;;;;;;;9.15;5.20;;;21.90;94.90;;;;;;4912465;29;20039;-67
2022/11/03 14:55:11;;;;;;;9.25;4.65;;;21.90;95.00;;;;;;4912005;29;20048;-67
2022/11/03 14:58:16;;;;;;;13.23;5.72;;;21.80;95.00;;;;;;4912225;29;20528;-68
2022/11/03 15:01:20;;;;;;;12.60;5.60;;;21.80;95.00;;;;;;4911313;29;20044;-67
2022/11/03 15:04:24;;;;;;;12.90;5.30;;;21.80;95.20;;;;;;4911683;29;20051;-67
2022/11/03 15:07:28;;;;;;;10.23;5.82;;;21.70;95.30;;;;;;4912438;29;20460;-67
2022/11/03 15:10:32;;;;;;;12.63;6.07;;;21.70;95.40;;;;;;4911793;29;20055;-67
2022/11/03 15:13:36;;;;;;;11.65;6.22;;;21.70;95.60;;;;;;4910699;29;20046;-67
2022/11/03 15:16:41;;;;;;;8.90;5.93;;;21.60;95.70;;;;;;4911488;29;20051;-66
2022/11/03 15:19:45;;;;;;;17.27;7.25;;;21.60;95.80;;;;;;4911920;29;20494;-66
2022/11/03 15:22:49;;;;;;;12.90;7.18;;;21.50;96.00;;;;;;4914414;29;20043;-67
2022/11/03 15:25:54;;;;;;;17.23;8.15;;;21.50;96.10;;;;;;4914121;29;20046;-66
2022/11/03 15:28:58;;;;;;;12.57;6.90;;;21.50;96.30;;;;;;4914054;29;20503;-66
2022/11/03 15:32:02;;;;;;;13.20;6.72;;;21.50;96.40;;;;;;4914500;29;20071;-66
2022/11/03 15:35:06;;;;;;;14.35;7.40;;;21.40;96.50;;;;;;4914591;29;20063;-67
2022/11/03 15:38:11;;;;;;;33.30;8.73;;;21.40;96.60;;;;;;4914090;29;20055;-66
2022/11/03 15:41:15;;;;;;;27.15;10.38;;;21.40;96.80;;;;;;4913474;29;20052;-66
2022/11/03 15:44:19;;;;;;;23.77;9.48;;;21.30;97.00;;;;;;4914173;29;20444;-65
2022/11/03 15:47:25;;;;;;;18.50;8.48;;;21.20;97.20;;;;;;4914318;29;20673;-68
2022/11/03 15:50:29;;;;;;;20.67;8.65;;;21.20;97.40;;;;;;4914333;29;20408;-68
2022/11/03 15:53:33;;;;;;;18.50;7.88;;;21.10;97.60;;;;;;4913746;29;20055;-68
2022/11/03 15:56:39;;;;;;;19.38;8.23;;;21.10;97.80;;;;;;4915247;29;20067;-69
2022/11/03 15:59:44;;;;;;;18.65;8.88;;;21.10;97.90;;;;;;4917683;29;20064;-69
2022/11/03 16:02:47;;;;;;;22.20;9.07;;;21.00;97.90;;;;;;4917607;29;20051;-70
2022/11/03 16:05:52;;;;;;;16.88;8.05;;;21.00;98.10;;;;;;4917617;29;20047;-70
2022/11/03 16:08:55;;;;;;;12.52;8.40;;;21.00;98.10;;;;;;4917403;29;20043;-70
2022/11/03 16:11:59;;;;;;;29.20;8.88;;;20.90;98.20;;;;;;4917612;29;20043;-70
2022/11/03 16:15:04;;;;;;;22.35;11.15;;;20.80;98.30;;;;;;4917137;29;20066;-70
2022/11/03 16:18:08;;;;;;;21.27;12.07;;;20.80;98.40;;;;;;4917600;29;20059;-70
2022/11/03 16:21:12;;;;;;;27.92;13.57;;;20.80;98.60;;;;;;4917559;29;20047;-69